sensor_id;sensor_type;location;lat;lon;timestamp;pressure;altitude;pressure_sealevel;temperature;humidity
35952;BME280;22035;51.406;16.194;2022-12-29T00:02:24;99549.98;;;26.04;20.75
35952;BME280;22035;51.406;16.194;2022-12-29T00:04:50;99548.26;;;26.02;20.77
35952;BME280;22035;51.406;16.194;2022-12-29T00:07:16;99545.44;;;26.03;20.75
35952;BME280;22035;51.406;16.194;2022-12-29T00:09:42;99535.86;;;26.04;20.74
35952;BME280;22035;51.406;16.194;2022-12-29T00:12:07;99533.81;;;26.08;20.71
35952;BME280;22035;51.406;16.194;2022-12-29T00:14:33;99525.21;;;26.06;20.72
35952;BME280;22035;51.406;16.194;2022-12-29T00:16:59;99526.35;;;26.06;20.72
35952;BME280;22035;51.406;16.194;2022-12-29T00:19:25;99522.94;;;26.06;20.72
35952;BME280;22035;51.406;16.194;2022-12-29T00:21:50;99523.88;;;26.07;20.72
35952;BME280;22035;51.406;16.194;2022-12-29T00:24:18;99523.24;;;26.05;20.74
35952;BME280;22035;51.406;16.194;2022-12-29T00:26:45;99524.39;;;26.08;20.72
35952;BME280;22035;51.406;16.194;2022-12-29T00:29:12;99520.91;;;26.06;20.74
35952;BME280;22035;51.406;16.194;2022-12-29T00:31:38;99519.60;;;26.07;20.72
35952;BME280;22035;51.406;16.194;2022-12-29T00:34:03;99513.56;;;26.00;20.79
35952;BME280;22035;51.406;16.194;2022-12-29T00:36:32;99509.72;;;26.06;20.75
35952;BME280;22035;51.406;16.194;2022-12-29T00:39:02;99507.48;;;26.07;20.74
35952;BME280;22035;51.406;16.194;2022-12-29T00:41:29;99506.47;;;26.06;20.74
35952;BME280;22035;51.406;16.194;2022-12-29T00:43:55;99506.86;;;26.08;20.72
35952;BME280;22035;51.406;16.194;2022-12-29T00:46:21;99505.52;;;26.08;20.73
35952;BME280;22035;51.406;16.194;2022-12-29T00:48:46;99504.10;;;26.08;20.73
35952;BME280;22035;51.406;16.194;2022-12-29T00:51:12;99501.26;;;26.10;20.71
35952;BME280;22035;51.406;16.194;2022-12-29T00:53:38;99499.81;;;26.07;20.74
35952;BME280;22035;51.406;16.194;2022-12-29T00:56:03;99497.28;;;26.10;20.71
35952;BME280;22035;51.406;16.194;2022-12-29T00:58:30;99502.03;;;26.06;20.75
35952;BME280;22035;51.406;16.194;2022-12-29T01:01:01;99501.96;;;26.11;20.71
35952;BME280;22035;51.406;16.194;2022-12-29T01:03:27;99500.91;;;26.05;20.77
35952;BME280;22035;51.406;16.194;2022-12-29T01:05:52;99500.98;;;26.06;20.77
35952;BME280;22035;51.406;16.194;2022-12-29T01:08:18;99504.30;;;26.05;20.76
35952;BME280;22035;51.406;16.194;2022-12-29T01:10:44;99503.82;;;26.10;20.72
35952;BME280;22035;51.406;16.194;2022-12-29T01:13:09;99506.62;;;26.08;20.75
35952;BME280;22035;51.406;16.194;2022-12-29T01:15:35;99504.74;;;26.08;20.75
35952;BME280;22035;51.406;16.194;2022-12-29T01:18:01;99502.55;;;26.05;20.77
35952;BME280;22035;51.406;16.194;2022-12-29T01:20:26;99500.73;;;26.06;20.76
35952;BME280;22035;51.406;16.194;2022-12-29T01:22:52;99496.74;;;26.10;20.72
35952;BME280;22035;51.406;16.194;2022-12-29T01:25:18;99497.77;;;26.07;20.76
35952;BME280;22035;51.406;16.194;2022-12-29T01:27:43;99493.01;;;26.07;20.77
35952;BME280;22035;51.406;16.194;2022-12-29T01:30:10;99486.40;;;26.09;20.75
35952;BME280;22035;51.406;16.194;2022-12-29T01:32:35;99485.03;;;26.07;20.75
35952;BME280;22035;51.406;16.194;2022-12-29T01:35:01;99481.87;;;26.11;20.72
35952;BME280;22035;51.406;16.194;2022-12-29T01:37:27;99476.78;;;26.11;20.73
35952;BME280;22035;51.406;16.194;2022-12-29T01:39:52;99479.52;;;26.08;20.76
35952;BME280;22035;51.406;16.194;2022-12-29T01:42:22;99478.82;;;26.12;20.71
35952;BME280;22035;51.406;16.194;2022-12-29T01:44:52;99480.09;;;26.07;20.76
35952;BME280;22035;51.406;16.194;2022-12-29T01:47:25;99476.45;;;26.13;20.69
35952;BME280;22035;51.406;16.194;2022-12-29T01:49:53;99475.57;;;26.11;20.73
35952;BME280;22035;51.406;16.194;2022-12-29T01:52:19;99475.28;;;26.13;20.71
35952;BME280;22035;51.406;16.194;2022-12-29T01:54:48;99472.89;;;26.13;20.71
35952;BME280;22035;51.406;16.194;2022-12-29T01:57:18;99467.73;;;26.10;20.73
35952;BME280;22035;51.406;16.194;2022-12-29T01:59:49;99462.16;;;26.09;20.73
35952;BME280;22035;51.406;16.194;2022-12-29T02:02:15;99459.13;;;26.09;20.75
35952;BME280;22035;51.406;16.194;2022-12-29T02:04:42;99455.88;;;26.09;20.76
35952;BME280;22035;51.406;16.194;2022-12-29T02:07:14;99450.85;;;26.07;20.78
35952;BME280;22035;51.406;16.194;2022-12-29T02:09:42;99449.39;;;26.08;20.76
35952;BME280;22035;51.406;16.194;2022-12-29T02:12:09;99448.98;;;26.09;20.75
35952;BME280;22035;51.406;16.194;2022-12-29T02:14:35;99444.99;;;26.09;20.76
35952;BME280;22035;51.406;16.194;2022-12-29T02:17:08;99435.95;;;26.13;20.72
35952;BME280;22035;51.406;16.194;2022-12-29T02:20:26;99438.02;;;26.08;20.77
35952;BME280;22035;51.406;16.194;2022-12-29T02:23:18;99437.67;;;26.12;20.73
35952;BME280;22035;51.406;16.194;2022-12-29T02:26:12;99434.57;;;26.10;20.75
35952;BME280;22035;51.406;16.194;2022-12-29T02:28:56;99434.86;;;26.12;20.73
35952;BME280;22035;51.406;16.194;2022-12-29T02:31:30;99442.60;;;26.08;20.77
35952;BME280;22035;51.406;16.194;2022-12-29T02:34:10;99436.37;;;26.11;20.75
35952;BME280;22035;51.406;16.194;2022-12-29T02:36:49;99440.31;;;26.08;20.78
35952;BME280;22035;51.406;16.194;2022-12-29T02:39:23;99437.33;;;26.04;20.82
35952;BME280;22035;51.406;16.194;2022-12-29T02:41:58;99430.39;;;26.14;20.72
35952;BME280;22035;51.406;16.194;2022-12-29T02:44:33;99433.80;;;26.11;20.75
35952;BME280;22035;51.406;16.194;2022-12-29T02:47:05;99431.91;;;26.10;20.76
35952;BME280;22035;51.406;16.194;2022-12-29T02:49:38;99427.78;;;26.11;20.76
35952;BME280;22035;51.406;16.194;2022-12-29T02:52:08;99423.43;;;26.10;20.76
35952;BME280;22035;51.406;16.194;2022-12-29T02:54:36;99426.50;;;26.10;20.77
35952;BME280;22035;51.406;16.194;2022-12-29T02:57:02;99426.80;;;26.08;20.77
35952;BME280;22035;51.406;16.194;2022-12-29T02:59:28;99426.95;;;26.12;20.74
35952;BME280;22035;51.406;16.194;2022-12-29T03:02:07;99419.66;;;26.12;20.74
35952;BME280;22035;51.406;16.194;2022-12-29T03:04:42;99419.83;;;26.07;20.80
35952;BME280;22035;51.406;16.194;2022-12-29T03:07:18;99415.46;;;26.10;20.77
35952;BME280;22035;51.406;16.194;2022-12-29T03:09:52;99417.37;;;26.08;20.80
35952;BME280;22035;51.406;16.194;2022-12-29T03:12:25;99419.46;;;26.11;20.77
35952;BME280;22035;51.406;16.194;2022-12-29T03:14:59;99414.39;;;26.11;20.76
35952;BME280;22035;51.406;16.194;2022-12-29T03:17:31;99415.58;;;26.09;20.77
35952;BME280;22035;51.406;16.194;2022-12-29T03:20:06;99408.44;;;26.11;20.76
35952;BME280;22035;51.406;16.194;2022-12-29T03:22:35;99409.02;;;26.10;20.76
35952;BME280;22035;51.406;16.194;2022-12-29T03:25:05;99403.89;;;26.14;20.73
35952;BME280;22035;51.406;16.194;2022-12-29T03:27:37;99400.57;;;26.13;20.73
35952;BME280;22035;51.406;16.194;2022-12-29T03:30:05;99400.41;;;26.15;20.72
35952;BME280;22035;51.406;16.194;2022-12-29T03:32:33;99396.76;;;26.15;20.72
35952;BME280;22035;51.406;16.194;2022-12-29T03:35:00;99393.48;;;26.14;20.73
35952;BME280;22035;51.406;16.194;2022-12-29T03:37:32;99393.51;;;26.12;20.76
35952;BME280;22035;51.406;16.194;2022-12-29T03:40:01;99396.05;;;26.12;20.75
35952;BME280;22035;51.406;16.194;2022-12-29T03:42:29;99392.18;;;26.11;20.77
35952;BME280;22035;51.406;16.194;2022-12-29T03:44:56;99393.89;;;26.12;20.77
35952;BME280;22035;51.406;16.194;2022-12-29T03:47:23;99395.86;;;26.11;20.77
35952;BME280;22035;51.406;16.194;2022-12-29T03:49:49;99398.44;;;26.13;20.75
35952;BME280;22035;51.406;16.194;2022-12-29T03:52:15;99401.34;;;26.17;20.72
35952;BME280;22035;51.406;16.194;2022-12-29T03:54:41;99401.39;;;26.15;20.74
35952;BME280;22035;51.406;16.194;2022-12-29T03:57:08;99399.27;;;26.09;20.81
35952;BME280;22035;51.406;16.194;2022-12-29T03:59:33;99398.85;;;26.14;20.76
35952;BME280;22035;51.406;16.194;2022-12-29T04:01:59;99396.24;;;26.15;20.74
35952;BME280;22035;51.406;16.194;2022-12-29T04:04:25;99394.43;;;26.14;20.75
35952;BME280;22035;51.406;16.194;2022-12-29T04:06:50;99391.01;;;26.11;20.78
35952;BME280;22035;51.406;16.194;2022-12-29T04:09:16;99393.27;;;26.15;20.74
35952;BME280;22035;51.406;16.194;2022-12-29T04:11:42;99392.06;;;26.11;20.83
35952;BME280;22035;51.406;16.194;2022-12-29T04:14:08;99384.82;;;26.13;20.76
35952;BME280;22035;51.406;16.194;2022-12-29T04:16:33;99381.81;;;26.12;20.77
35952;BME280;22035;51.406;16.194;2022-12-29T04:18:59;99382.54;;;26.15;20.75
35952;BME280;22035;51.406;16.194;2022-12-29T04:21:25;99375.30;;;26.11;20.80
35952;BME280;22035;51.406;16.194;2022-12-29T04:23:50;99375.59;;;26.15;20.75
35952;BME280;22035;51.406;16.194;2022-12-29T04:26:16;99377.30;;;26.13;20.78
35952;BME280;22035;51.406;16.194;2022-12-29T04:28:42;99370.64;;;26.14;20.76
35952;BME280;22035;51.406;16.194;2022-12-29T04:31:08;99368.74;;;26.15;20.75
35952;BME280;22035;51.406;16.194;2022-12-29T04:33:33;99369.58;;;26.15;20.77
35952;BME280;22035;51.406;16.194;2022-12-29T04:35:59;99366.05;;;26.15;20.75
35952;BME280;22035;51.406;16.194;2022-12-29T04:38:25;99366.86;;;26.16;20.75
35952;BME280;22035;51.406;16.194;2022-12-29T04:40:51;99362.48;;;26.14;20.77
35952;BME280;22035;51.406;16.194;2022-12-29T04:43:17;99357.66;;;26.14;20.77
35952;BME280;22035;51.406;16.194;2022-12-29T04:45:43;99351.04;;;26.17;20.74
35952;BME280;22035;51.406;16.194;2022-12-29T04:48:09;99351.06;;;26.18;20.73
35952;BME280;22035;51.406;16.194;2022-12-29T04:50:34;99348.78;;;26.11;20.81
35952;BME280;22035;51.406;16.194;2022-12-29T04:53:00;99348.02;;;26.14;20.77
35952;BME280;22035;51.406;16.194;2022-12-29T04:55:26;99347.41;;;26.13;20.78
35952;BME280;22035;51.406;16.194;2022-12-29T04:57:52;99343.70;;;26.16;20.76
35952;BME280;22035;51.406;16.194;2022-12-29T05:00:18;99346.19;;;26.11;20.82
35952;BME280;22035;51.406;16.194;2022-12-29T05:02:44;99347.34;;;26.15;20.78
35952;BME280;22035;51.406;16.194;2022-12-29T05:05:10;99342.24;;;26.13;20.79
35952;BME280;22035;51.406;16.194;2022-12-29T05:07:36;99337.51;;;26.17;20.75
35952;BME280;22035;51.406;16.194;2022-12-29T05:10:02;99337.82;;;26.18;20.74
35952;BME280;22035;51.406;16.194;2022-12-29T05:12:30;99332.79;;;26.18;20.74
35952;BME280;22035;51.406;16.194;2022-12-29T05:14:55;99331.90;;;26.15;20.78
35952;BME280;22035;51.406;16.194;2022-12-29T05:17:21;99329.89;;;26.16;20.77
35952;BME280;22035;51.406;16.194;2022-12-29T05:19:47;99327.64;;;26.16;20.75
35952;BME280;22035;51.406;16.194;2022-12-29T05:22:13;99331.36;;;26.17;20.83
35952;BME280;22035;51.406;16.194;2022-12-29T05:24:38;99329.63;;;26.16;20.78
35952;BME280;22035;51.406;16.194;2022-12-29T05:27:04;99325.69;;;26.17;20.76
35952;BME280;22035;51.406;16.194;2022-12-29T05:29:30;99324.38;;;26.17;20.76
35952;BME280;22035;51.406;16.194;2022-12-29T05:31:55;99325.65;;;26.16;20.78
35952;BME280;22035;51.406;16.194;2022-12-29T05:34:21;99330.64;;;26.17;20.76
35952;BME280;22035;51.406;16.194;2022-12-29T05:36:47;99336.59;;;26.15;20.79
35952;BME280;22035;51.406;16.194;2022-12-29T05:39:12;99339.28;;;26.16;20.78
35952;BME280;22035;51.406;16.194;2022-12-29T05:41:38;99336.25;;;26.13;20.81
35952;BME280;22035;51.406;16.194;2022-12-29T05:44:04;99334.75;;;26.19;20.75
35952;BME280;22035;51.406;16.194;2022-12-29T05:46:30;99335.04;;;26.16;20.78
35952;BME280;22035;51.406;16.194;2022-12-29T05:48:55;99331.19;;;26.18;20.76
35952;BME280;22035;51.406;16.194;2022-12-29T05:51:21;99322.78;;;26.19;20.75
35952;BME280;22035;51.406;16.194;2022-12-29T05:53:47;99317.27;;;26.17;20.76
35952;BME280;22035;51.406;16.194;2022-12-29T05:56:13;99316.10;;;26.18;20.75
35952;BME280;22035;51.406;16.194;2022-12-29T05:58:38;99317.92;;;26.19;20.75
35952;BME280;22035;51.406;16.194;2022-12-29T06:01:04;99322.08;;;26.13;20.82
35952;BME280;22035;51.406;16.194;2022-12-29T06:03:30;99324.31;;;26.21;20.73
35952;BME280;22035;51.406;16.194;2022-12-29T06:05:56;99320.80;;;26.20;20.76
35952;BME280;22035;51.406;16.194;2022-12-29T06:08:22;99314.74;;;26.20;20.75
35952;BME280;22035;51.406;16.194;2022-12-29T06:10:47;99316.99;;;26.20;20.75
35952;BME280;22035;51.406;16.194;2022-12-29T06:13:13;99318.63;;;26.18;20.77
35952;BME280;22035;51.406;16.194;2022-12-29T06:15:39;99321.36;;;26.16;20.81
35952;BME280;22035;51.406;16.194;2022-12-29T06:18:04;99319.34;;;26.18;20.78
35952;BME280;22035;51.406;16.194;2022-12-29T06:20:30;99319.67;;;26.17;20.78
35952;BME280;22035;51.406;16.194;2022-12-29T06:22:56;99324.42;;;26.18;20.79
35952;BME280;22035;51.406;16.194;2022-12-29T06:25:22;99326.63;;;26.18;20.78
35952;BME280;22035;51.406;16.194;2022-12-29T06:27:47;99330.38;;;26.15;20.80
35952;BME280;22035;51.406;16.194;2022-12-29T06:30:13;99332.79;;;26.16;20.81
35952;BME280;22035;51.406;16.194;2022-12-29T06:32:39;99332.81;;;26.19;20.77
35952;BME280;22035;51.406;16.194;2022-12-29T06:35:05;99332.89;;;26.20;20.72
35952;BME280;22035;51.406;16.194;2022-12-29T06:37:31;99335.93;;;26.22;20.76
35952;BME280;22035;51.406;16.194;2022-12-29T06:39:57;99334.58;;;26.18;20.79
35952;BME280;22035;51.406;16.194;2022-12-29T06:42:23;99336.64;;;26.20;20.78
35952;BME280;22035;51.406;16.194;2022-12-29T06:44:49;99333.49;;;26.20;20.77
35952;BME280;22035;51.406;16.194;2022-12-29T06:47:14;99331.34;;;26.19;20.76
35952;BME280;22035;51.406;16.194;2022-12-29T06:49:40;99328.79;;;26.21;20.77
35952;BME280;22035;51.406;16.194;2022-12-29T06:52:06;99336.24;;;26.24;20.74
35952;BME280;22035;51.406;16.194;2022-12-29T06:54:32;99338.13;;;26.22;20.76
35952;BME280;22035;51.406;16.194;2022-12-29T06:56:58;99339.61;;;26.20;20.78
35952;BME280;22035;51.406;16.194;2022-12-29T06:59:23;99336.50;;;26.19;20.80
35952;BME280;22035;51.406;16.194;2022-12-29T07:01:50;99337.31;;;26.21;20.74
35952;BME280;22035;51.406;16.194;2022-12-29T07:04:16;99337.72;;;26.21;20.77
35952;BME280;22035;51.406;16.194;2022-12-29T07:06:41;99334.89;;;26.21;20.78
35952;BME280;22035;51.406;16.194;2022-12-29T07:09:08;99336.15;;;26.23;20.76
35952;BME280;22035;51.406;16.194;2022-12-29T07:11:34;99333.57;;;26.21;20.78
35952;BME280;22035;51.406;16.194;2022-12-29T07:14:00;99329.60;;;26.21;20.78
35952;BME280;22035;51.406;16.194;2022-12-29T07:16:25;99325.53;;;26.21;20.78
35952;BME280;22035;51.406;16.194;2022-12-29T07:18:51;99320.76;;;26.20;20.78
35952;BME280;22035;51.406;16.194;2022-12-29T07:21:18;99320.78;;;26.18;20.82
35952;BME280;22035;51.406;16.194;2022-12-29T07:23:44;99319.04;;;26.22;20.78
35952;BME280;22035;51.406;16.194;2022-12-29T07:26:11;99317.76;;;26.23;20.76
35952;BME280;22035;51.406;16.194;2022-12-29T07:28:37;99318.78;;;26.20;20.80
35952;BME280;22035;51.406;16.194;2022-12-29T07:31:03;99319.25;;;26.21;20.78
35952;BME280;22035;51.406;16.194;2022-12-29T07:33:30;99320.58;;;26.23;20.76
35952;BME280;22035;51.406;16.194;2022-12-29T07:35:55;99322.59;;;26.20;20.80
35952;BME280;22035;51.406;16.194;2022-12-29T07:38:21;99325.24;;;26.24;20.77
35952;BME280;22035;51.406;16.194;2022-12-29T07:40:47;99327.17;;;26.22;20.78
35952;BME280;22035;51.406;16.194;2022-12-29T07:43:13;99329.39;;;26.23;20.78
35952;BME280;22035;51.406;16.194;2022-12-29T07:45:38;99337.38;;;26.20;20.81
35952;BME280;22035;51.406;16.194;2022-12-29T07:48:05;99336.50;;;26.24;20.77
35952;BME280;22035;51.406;16.194;2022-12-29T07:50:31;99336.84;;;26.24;20.78
35952;BME280;22035;51.406;16.194;2022-12-29T07:52:56;99337.03;;;26.25;20.77
35952;BME280;22035;51.406;16.194;2022-12-29T07:55:22;99333.27;;;26.25;20.77
35952;BME280;22035;51.406;16.194;2022-12-29T07:57:48;99328.34;;;26.25;20.77
35952;BME280;22035;51.406;16.194;2022-12-29T08:00:14;99323.68;;;26.27;20.75
35952;BME280;22035;51.406;16.194;2022-12-29T08:02:40;99323.58;;;26.24;20.88
35952;BME280;22035;51.406;16.194;2022-12-29T08:05:06;99325.18;;;26.22;20.81
35952;BME280;22035;51.406;16.194;2022-12-29T08:07:32;99326.26;;;26.27;20.77
35952;BME280;22035;51.406;16.194;2022-12-29T08:09:58;99327.14;;;26.27;20.77
35952;BME280;22035;51.406;16.194;2022-12-29T08:12:23;99325.39;;;26.26;20.78
35952;BME280;22035;51.406;16.194;2022-12-29T08:14:49;99329.81;;;26.26;20.78
35952;BME280;22035;51.406;16.194;2022-12-29T08:17:15;99329.95;;;26.25;20.79
35952;BME280;22035;51.406;16.194;2022-12-29T08:19:40;99328.16;;;26.26;20.79
35952;BME280;22035;51.406;16.194;2022-12-29T08:22:06;99328.04;;;26.27;20.78
35952;BME280;22035;51.406;16.194;2022-12-29T08:24:32;99326.78;;;26.28;20.77
35952;BME280;22035;51.406;16.194;2022-12-29T08:26:57;99326.15;;;26.29;20.77
35952;BME280;22035;51.406;16.194;2022-12-29T08:29:23;99325.02;;;26.27;20.79
35952;BME280;22035;51.406;16.194;2022-12-29T08:31:49;99333.46;;;26.30;20.76
35952;BME280;22035;51.406;16.194;2022-12-29T08:34:15;99330.28;;;26.30;20.77
35952;BME280;22035;51.406;16.194;2022-12-29T08:36:40;99330.85;;;26.28;20.78
35952;BME280;22035;51.406;16.194;2022-12-29T08:39:06;99336.82;;;26.33;20.75
35952;BME280;22035;51.406;16.194;2022-12-29T08:41:32;99335.06;;;26.26;20.81
35952;BME280;22035;51.406;16.194;2022-12-29T08:43:58;99341.47;;;26.31;20.78
35952;BME280;22035;51.406;16.194;2022-12-29T08:46:23;99345.05;;;26.32;20.76
35952;BME280;22035;51.406;16.194;2022-12-29T08:48:49;99347.74;;;26.32;20.78
35952;BME280;22035;51.406;16.194;2022-12-29T08:51:15;99350.57;;;26.30;20.79
35952;BME280;22035;51.406;16.194;2022-12-29T08:53:41;99352.77;;;26.26;20.83
35952;BME280;22035;51.406;16.194;2022-12-29T08:56:09;99354.13;;;26.30;20.80
35952;BME280;22035;51.406;16.194;2022-12-29T08:58:35;99353.49;;;26.35;20.75
35952;BME280;22035;51.406;16.194;2022-12-29T09:01:01;99359.79;;;26.31;20.79
35952;BME280;22035;51.406;16.194;2022-12-29T09:03:27;99359.84;;;26.33;20.77
35952;BME280;22035;51.406;16.194;2022-12-29T09:05:54;99357.37;;;26.32;20.79
35952;BME280;22035;51.406;16.194;2022-12-29T09:08:21;99350.70;;;26.34;20.76
35952;BME280;22035;51.406;16.194;2022-12-29T09:10:47;99356.87;;;26.34;20.78
35952;BME280;22035;51.406;16.194;2022-12-29T09:13:14;99350.72;;;26.31;20.81
35952;BME280;22035;51.406;16.194;2022-12-29T09:15:40;99355.02;;;26.37;20.75
35952;BME280;22035;51.406;16.194;2022-12-29T09:18:07;99351.90;;;26.35;20.77
35952;BME280;22035;51.406;16.194;2022-12-29T09:20:33;99348.31;;;26.33;20.79
35952;BME280;22035;51.406;16.194;2022-12-29T09:22:58;99347.28;;;26.32;20.81
35952;BME280;22035;51.406;16.194;2022-12-29T09:25:24;99350.08;;;26.33;20.79
35952;BME280;22035;51.406;16.194;2022-12-29T09:27:50;99347.15;;;26.35;20.79
35952;BME280;22035;51.406;16.194;2022-12-29T09:30:16;99352.85;;;26.30;20.84
35952;BME280;22035;51.406;16.194;2022-12-29T09:32:42;99351.56;;;26.33;20.81
35952;BME280;22035;51.406;16.194;2022-12-29T09:35:07;99351.54;;;26.35;20.79
35952;BME280;22035;51.406;16.194;2022-12-29T09:37:33;99353.05;;;26.33;20.81
35952;BME280;22035;51.406;16.194;2022-12-29T09:39:59;99347.39;;;26.37;20.77
35952;BME280;22035;51.406;16.194;2022-12-29T09:42:27;99343.33;;;26.38;20.75
35952;BME280;22035;51.406;16.194;2022-12-29T09:45:02;99344.66;;;26.40;20.75
35952;BME280;22035;51.406;16.194;2022-12-29T09:47:30;99337.44;;;26.30;20.85
35952;BME280;22035;51.406;16.194;2022-12-29T09:49:59;99338.39;;;26.38;20.78
35952;BME280;22035;51.406;16.194;2022-12-29T09:52:30;99341.01;;;26.38;20.78
35952;BME280;22035;51.406;16.194;2022-12-29T09:54:59;99336.58;;;26.33;20.83
35952;BME280;22035;51.406;16.194;2022-12-29T09:57:40;99337.32;;;26.36;20.81
35952;BME280;22035;51.406;16.194;2022-12-29T10:00:13;99331.81;;;26.36;20.81
35952;BME280;22035;51.406;16.194;2022-12-29T10:02:41;99332.66;;;26.37;20.79
35952;BME280;22035;51.406;16.194;2022-12-29T10:05:20;99336.66;;;26.40;20.78
35952;BME280;22035;51.406;16.194;2022-12-29T10:07:55;99340.87;;;26.35;20.83
35952;BME280;22035;51.406;16.194;2022-12-29T10:10:33;99335.78;;;26.35;20.84
35952;BME280;22035;51.406;16.194;2022-12-29T10:13:08;99330.83;;;26.39;20.81
35952;BME280;22035;51.406;16.194;2022-12-29T10:15:52;99331.52;;;26.40;20.79
35952;BME280;22035;51.406;16.194;2022-12-29T10:18:33;99330.48;;;26.38;20.81
35952;BME280;22035;51.406;16.194;2022-12-29T10:21:04;99326.31;;;26.40;20.80
35952;BME280;22035;51.406;16.194;2022-12-29T10:23:35;99325.64;;;26.40;20.80
35952;BME280;22035;51.406;16.194;2022-12-29T10:26:02;99331.27;;;26.39;20.82
35952;BME280;22035;51.406;16.194;2022-12-29T10:28:35;99333.98;;;26.40;20.82
35952;BME280;22035;51.406;16.194;2022-12-29T10:31:05;99335.33;;;26.39;20.83
35952;BME280;22035;51.406;16.194;2022-12-29T10:33:36;99330.43;;;26.41;20.82
35952;BME280;22035;51.406;16.194;2022-12-29T10:36:12;99324.74;;;26.39;20.83
35952;BME280;22035;51.406;16.194;2022-12-29T10:38:44;99326.57;;;26.43;20.80
35952;BME280;22035;51.406;16.194;2022-12-29T10:41:15;99326.67;;;26.43;20.81
35952;BME280;22035;51.406;16.194;2022-12-29T10:43:45;99325.07;;;26.43;20.80
35952;BME280;22035;51.406;16.194;2022-12-29T10:46:14;99324.76;;;26.42;20.81
35952;BME280;22035;51.406;16.194;2022-12-29T10:48:41;99324.65;;;26.45;20.79
35952;BME280;22035;51.406;16.194;2022-12-29T10:51:08;99320.08;;;26.46;20.79
35952;BME280;22035;51.406;16.194;2022-12-29T10:53:39;99313.93;;;26.43;20.81
35952;BME280;22035;51.406;16.194;2022-12-29T10:56:15;99303.13;;;26.50;20.74
35952;BME280;22035;51.406;16.194;2022-12-29T10:58:47;99299.95;;;26.45;20.79
35952;BME280;22035;51.406;16.194;2022-12-29T11:01:14;99303.66;;;26.43;20.83
35952;BME280;22035;51.406;16.194;2022-12-29T11:03:48;99304.94;;;26.46;20.80
35952;BME280;22035;51.406;16.194;2022-12-29T11:06:19;99301.67;;;26.47;20.80
35952;BME280;22035;51.406;16.194;2022-12-29T11:08:52;99300.92;;;26.41;20.85
35952;BME280;22035;51.406;16.194;2022-12-29T11:11:25;99294.62;;;26.47;20.80
35952;BME280;22035;51.406;16.194;2022-12-29T11:13:56;99296.14;;;26.45;20.81
35952;BME280;22035;51.406;16.194;2022-12-29T11:16:28;99288.56;;;26.45;20.82
35952;BME280;22035;51.406;16.194;2022-12-29T11:18:54;99286.29;;;26.50;20.77
35952;BME280;22035;51.406;16.194;2022-12-29T11:21:32;99287.44;;;26.48;20.80
35952;BME280;22035;51.406;16.194;2022-12-29T11:23:59;99279.86;;;26.46;20.83
35952;BME280;22035;51.406;16.194;2022-12-29T11:26:26;99277.05;;;26.44;20.87
35952;BME280;22035;51.406;16.194;2022-12-29T11:29:25;99272.91;;;26.49;20.80
35952;BME280;22035;51.406;16.194;2022-12-29T11:31:52;99275.14;;;26.53;20.76
35952;BME280;22035;51.406;16.194;2022-12-29T11:34:20;99273.36;;;26.48;20.82
35952;BME280;22035;51.406;16.194;2022-12-29T11:36:47;99274.30;;;26.48;20.82
35952;BME280;22035;51.406;16.194;2022-12-29T11:39:27;99272.28;;;26.51;20.80
35952;BME280;22035;51.406;16.194;2022-12-29T11:41:54;99273.27;;;26.49;20.82
35952;BME280;22035;51.406;16.194;2022-12-29T11:44:20;99263.03;;;26.51;20.79
35952;BME280;22035;51.406;16.194;2022-12-29T11:46:48;99263.80;;;26.52;20.79
35952;BME280;22035;51.406;16.194;2022-12-29T11:49:20;99260.95;;;26.51;20.82
35952;BME280;22035;51.406;16.194;2022-12-29T11:51:49;99252.69;;;26.52;20.82
35952;BME280;22035;51.406;16.194;2022-12-29T11:54:18;99256.54;;;26.52;20.82
35952;BME280;22035;51.406;16.194;2022-12-29T11:56:46;99256.45;;;26.53;20.80
35952;BME280;22035;51.406;16.194;2022-12-29T11:59:49;99260.07;;;26.49;20.86
35952;BME280;22035;51.406;16.194;2022-12-29T12:02:27;99260.02;;;26.52;20.83
35952;BME280;22035;51.406;16.194;2022-12-29T12:05:01;99254.40;;;26.52;20.83
35952;BME280;22035;51.406;16.194;2022-12-29T12:07:37;99252.45;;;26.54;20.81
35952;BME280;22035;51.406;16.194;2022-12-29T12:10:06;99252.22;;;26.55;20.81
35952;BME280;22035;51.406;16.194;2022-12-29T12:12:39;99248.17;;;26.49;20.86
35952;BME280;22035;51.406;16.194;2022-12-29T12:15:15;99248.77;;;26.53;20.84
35952;BME280;22035;51.406;16.194;2022-12-29T12:17:48;99245.98;;;26.55;20.83
35952;BME280;22035;51.406;16.194;2022-12-29T12:20:19;99239.24;;;26.57;20.80
35952;BME280;22035;51.406;16.194;2022-12-29T12:22:53;99237.98;;;26.53;20.86
35952;BME280;22035;51.406;16.194;2022-12-29T12:25:25;99236.93;;;26.52;20.88
35952;BME280;22035;51.406;16.194;2022-12-29T12:27:58;99236.27;;;26.55;20.85
35952;BME280;22035;51.406;16.194;2022-12-29T12:30:30;99238.26;;;26.59;20.81
35952;BME280;22035;51.406;16.194;2022-12-29T12:33:02;99236.12;;;26.55;20.86
35952;BME280;22035;51.406;16.194;2022-12-29T12:35:38;99239.25;;;26.57;20.85
35952;BME280;22035;51.406;16.194;2022-12-29T12:38:16;99238.14;;;26.59;20.83
35952;BME280;22035;51.406;16.194;2022-12-29T12:40:57;99239.87;;;26.62;20.79
35952;BME280;22035;51.406;16.194;2022-12-29T12:43:36;99240.74;;;26.60;20.83
35952;BME280;22035;51.406;16.194;2022-12-29T12:46:15;99235.23;;;26.57;20.85
35952;BME280;22035;51.406;16.194;2022-12-29T12:48:55;99245.54;;;26.59;20.85
35952;BME280;22035;51.406;16.194;2022-12-29T12:51:33;99238.32;;;26.57;20.87
35952;BME280;22035;51.406;16.194;2022-12-29T12:54:14;99240.09;;;26.59;20.86
35952;BME280;22035;51.406;16.194;2022-12-29T12:56:51;99247.95;;;26.57;20.89
35952;BME280;22035;51.406;16.194;2022-12-29T12:59:31;99244.96;;;26.56;20.91